Time;durP1;ratioP1;P1;durP2;ratioP2;P2;SDS_P1;SDS_P2;PMS_P1;PMS_P2;Temp;Humidity;BMP_temperature;BMP_pressure;BME280_temperature;BME280_humidity;BME280_pressure;Samples;Min_cycle;Max_cycle;Signal;HPM_P1;HPM_P2
2021/05/14 00:00:42;;;;;;;31.03;16.70;;;12.90;99.90;;;;;;5038603;28;20489;-83
2021/05/14 00:03:09;;;;;;;27.73;18.27;;;12.90;99.90;;;;;;5031491;28;20445;-83
2021/05/14 00:05:36;;;;;;;30.53;20.87;;;12.90;99.90;;;;;;5038840;28;20521;-83
2021/05/14 00:08:03;;;;;;;51.30;46.73;;;12.90;99.90;;;;;;5038431;28;20509;-82
2021/05/14 00:10:29;;;;;;;29.37;16.30;;;12.90;99.90;;;;;;5038315;28;20453;-84
2021/05/14 00:12:57;;;;;;;26.57;17.17;;;12.80;99.90;;;;;;5038955;28;20934;-83
2021/05/14 00:15:24;;;;;;;29.43;19.17;;;12.90;99.90;;;;;;5039430;28;20467;-83
2021/05/14 00:17:50;;;;;;;29.20;18.97;;;12.90;99.90;;;;;;5038405;28;20463;-83
2021/05/14 00:20:17;;;;;;;29.93;18.70;;;12.90;99.90;;;;;;5033708;28;20519;-83
2021/05/14 00:22:44;;;;;;;33.87;24.07;;;12.90;99.90;;;;;;5035106;28;20579;-83
2021/05/14 00:25:11;;;;;;;32.33;20.33;;;12.90;99.90;;;;;;5034013;28;20476;-81
2021/05/14 00:27:38;;;;;;;32.17;17.27;;;12.90;99.90;;;;;;5034321;28;20969;-83
2021/05/14 00:30:08;;;;;;;34.47;21.87;;;12.90;99.90;;;;;;5035101;28;20450;-83
2021/05/14 00:32:35;;;;;;;91.97;84.87;;;12.80;99.90;;;;;;5042618;28;20536;-82
2021/05/14 00:35:02;;;;;;;31.70;21.00;;;12.70;99.90;;;;;;5041399;28;20449;-83
2021/05/14 00:37:28;;;;;;;30.87;19.00;;;12.70;99.90;;;;;;5039124;28;20468;-83
2021/05/14 00:39:55;;;;;;;32.10;19.10;;;12.80;99.90;;;;;;5038891;28;20444;-82
2021/05/14 00:42:21;;;;;;;32.83;21.17;;;12.80;99.90;;;;;;5037464;28;20618;-82
2021/05/14 00:44:48;;;;;;;31.23;21.10;;;12.70;99.90;;;;;;5037850;28;20476;-83
2021/05/14 00:47:17;;;;;;;31.67;22.20;;;12.80;99.90;;;;;;5037801;28;20472;-82
2021/05/14 00:49:44;;;;;;;30.50;19.13;;;12.70;99.90;;;;;;5036625;28;20449;-83
2021/05/14 00:52:14;;;;;;;31.60;19.87;;;12.70;99.90;;;;;;5037338;28;20444;-82
2021/05/14 00:54:41;;;;;;;30.83;19.20;;;12.70;99.90;;;;;;5037892;28;20849;-81
2021/05/14 00:57:08;;;;;;;29.80;18.17;;;12.70;99.90;;;;;;5037194;28;21048;-83
2021/05/14 00:59:36;;;;;;;32.27;19.23;;;12.70;99.90;;;;;;5037509;28;20476;-84
2021/05/14 01:02:03;;;;;;;31.93;20.50;;;12.70;99.90;;;;;;5037898;28;20500;-84
2021/05/14 01:04:31;;;;;;;33.10;19.47;;;12.70;99.90;;;;;;5037860;28;20467;-83
2021/05/14 01:06:57;;;;;;;33.80;18.57;;;12.70;99.90;;;;;;5037931;28;20483;-83
2021/05/14 01:09:24;;;;;;;31.13;18.60;;;12.70;99.90;;;;;;5038187;28;20528;-82
2021/05/14 01:11:50;;;;;;;30.70;19.53;;;12.70;99.90;;;;;;5028013;28;20556;-83
2021/05/14 01:14:16;;;;;;;33.93;23.03;;;12.60;99.90;;;;;;5037857;28;21020;-82
2021/05/14 01:16:43;;;;;;;29.00;18.37;;;12.60;99.90;;;;;;5036359;28;20472;-83
2021/05/14 01:19:11;;;;;;;31.80;19.27;;;12.60;99.90;;;;;;5037398;28;20522;-84
2021/05/14 01:21:38;;;;;;;32.80;21.73;;;12.60;99.90;;;;;;5036878;28;20963;-82
2021/05/14 01:24:05;;;;;;;28.90;17.50;;;12.60;99.90;;;;;;5036800;28;20444;-82
2021/05/14 01:26:32;;;;;;;34.60;21.27;;;12.60;99.90;;;;;;5035797;28;20599;-82
2021/05/14 01:29:00;;;;;;;33.47;21.07;;;12.70;99.90;;;;;;5036013;28;20548;-83
2021/05/14 01:31:27;;;;;;;33.83;23.97;;;12.70;99.90;;;;;;5035543;28;20488;-80
2021/05/14 01:33:53;;;;;;;36.03;31.67;;;12.70;99.90;;;;;;5030485;28;20493;-82
2021/05/14 01:36:19;;;;;;;31.80;20.10;;;12.60;99.90;;;;;;5035925;28;20475;-82
2021/05/14 01:38:47;;;;;;;37.27;18.77;;;12.50;99.90;;;;;;5036371;28;20463;-82
2021/05/14 01:41:13;;;;;;;29.67;18.20;;;12.50;99.90;;;;;;5031455;28;20450;-82
2021/05/14 01:43:40;;;;;;;32.00;18.97;;;12.50;99.90;;;;;;5023289;28;21090;-82
2021/05/14 01:46:07;;;;;;;30.73;19.87;;;12.40;99.90;;;;;;5036525;28;20472;-82
2021/05/14 01:48:33;;;;;;;26.70;17.43;;;12.40;99.90;;;;;;5035705;28;20453;-82
2021/05/14 01:51:03;;;;;;;29.20;19.07;;;12.40;99.90;;;;;;5036261;28;20575;-81
2021/05/14 01:53:29;;;;;;;29.40;17.97;;;12.30;99.90;;;;;;5035169;28;20444;-81
2021/05/14 01:55:57;;;;;;;28.40;18.33;;;12.30;99.90;;;;;;5036147;28;20481;-82
2021/05/14 01:58:23;;;;;;;31.90;19.53;;;12.30;99.90;;;;;;5035889;28;20815;-82
2021/05/14 02:00:49;;;;;;;31.20;19.47;;;12.30;99.90;;;;;;5036204;28;20532;-81
2021/05/14 02:03:16;;;;;;;34.00;20.00;;;12.40;99.90;;;;;;5035928;28;20448;-82
2021/05/14 02:05:42;;;;;;;30.97;18.90;;;12.40;99.90;;;;;;5035747;28;20973;-82
2021/05/14 02:08:08;;;;;;;30.40;22.30;;;12.40;99.90;;;;;;5036912;28;20527;-84
2021/05/14 02:10:35;;;;;;;31.50;20.37;;;12.40;99.90;;;;;;5035681;28;20518;-83
2021/05/14 02:13:03;;;;;;;32.17;19.07;;;12.40;99.90;;;;;;5036103;28;20487;-83
2021/05/14 02:15:29;;;;;;;38.90;29.00;;;12.50;99.90;;;;;;5036408;28;20944;-83
2021/05/14 02:17:55;;;;;;;31.30;20.47;;;12.50;99.90;;;;;;5037083;28;20455;-83
2021/05/14 02:20:22;;;;;;;30.70;19.90;;;12.60;99.90;;;;;;5036970;28;20594;-84
2021/05/14 02:22:48;;;;;;;29.77;18.20;;;12.60;99.90;;;;;;5039810;28;20437;-83
2021/05/14 02:25:14;;;;;;;30.60;18.33;;;12.60;99.90;;;;;;5036897;28;20464;-84
2021/05/14 02:27:41;;;;;;;28.20;19.10;;;12.60;99.90;;;;;;5035034;28;20451;-83
2021/05/14 02:30:09;;;;;;;30.27;18.60;;;12.60;99.90;;;;;;5036156;28;21035;-84
2021/05/14 02:32:36;;;;;;;29.37;18.47;;;12.50;99.90;;;;;;5036729;28;20485;-83
2021/05/14 02:35:03;;;;;;;27.53;17.63;;;12.50;99.90;;;;;;5035458;28;20555;-84
2021/05/14 02:37:29;;;;;;;26.40;16.10;;;12.40;99.90;;;;;;5035810;28;20544;-84
2021/05/14 02:39:56;;;;;;;25.33;16.10;;;12.40;99.90;;;;;;5035922;28;22179;-83
2021/05/14 02:42:22;;;;;;;31.17;18.83;;;12.30;99.90;;;;;;5035185;28;20475;-82
2021/05/14 02:44:48;;;;;;;28.60;16.83;;;12.20;99.90;;;;;;5036020;28;20471;-84
2021/05/14 02:47:16;;;;;;;26.50;16.10;;;12.20;99.90;;;;;;5036078;28;20515;-83
2021/05/14 02:49:42;;;;;;;25.97;15.00;;;12.20;99.90;;;;;;5036281;28;20459;-84
2021/05/14 02:52:09;;;;;;;27.63;16.23;;;12.20;99.90;;;;;;5036238;28;20489;-84
2021/05/14 02:54:36;;;;;;;26.60;16.00;;;12.10;99.90;;;;;;5035914;28;20445;-84
2021/05/14 02:57:04;;;;;;;28.83;16.30;;;12.10;99.90;;;;;;5039732;28;20488;-84
2021/05/14 02:59:30;;;;;;;28.60;17.53;;;12.10;99.90;;;;;;5039187;28;20484;-84
2021/05/14 03:01:58;;;;;;;29.00;16.60;;;12.00;99.90;;;;;;5038529;28;20445;-83
2021/05/14 03:04:25;;;;;;;27.37;17.00;;;12.00;99.90;;;;;;5039312;28;20562;-82
2021/05/14 03:06:51;;;;;;;38.73;20.03;;;12.10;99.90;;;;;;5039714;28;20980;-83
2021/05/14 03:09:18;;;;;;;25.27;15.77;;;12.00;99.90;;;;;;5039812;28;20461;-83
2021/05/14 03:11:44;;;;;;;28.00;16.50;;;12.10;99.90;;;;;;5040255;28;20507;-84
2021/05/14 03:14:11;;;;;;;30.03;21.07;;;12.10;99.90;;;;;;5039274;28;20444;-84
2021/05/14 03:16:37;;;;;;;26.90;16.20;;;12.10;99.90;;;;;;5039958;28;20494;-83
2021/05/14 03:19:04;;;;;;;25.20;15.43;;;12.10;99.90;;;;;;5040042;28;20543;-83
2021/05/14 03:21:32;;;;;;;28.63;16.10;;;12.10;99.90;;;;;;5039875;28;20587;-84
2021/05/14 03:23:58;;;;;;;32.60;21.83;;;12.10;99.90;;;;;;5039439;28;20489;-83
2021/05/14 03:26:25;;;;;;;29.97;16.50;;;12.00;99.90;;;;;;5038438;28;20558;-82
2021/05/14 03:28:51;;;;;;;26.77;15.97;;;11.90;99.90;;;;;;5039235;28;20586;-83
2021/05/14 03:31:17;;;;;;;26.07;16.30;;;12.00;99.90;;;;;;5041311;28;20476;-86
2021/05/14 03:33:44;;;;;;;26.50;15.97;;;11.90;99.90;;;;;;5040394;28;20494;-85
2021/05/14 03:36:10;;;;;;;26.07;14.87;;;11.90;99.90;;;;;;5038972;28;20525;-82
2021/05/14 03:38:37;;;;;;;26.90;15.47;;;11.90;99.90;;;;;;5040632;28;20535;-85
2021/05/14 03:41:18;;;;;;;26.73;15.67;;;11.80;99.90;;;;;;5041660;28;20447;-85
2021/05/14 03:43:44;;;;;;;26.93;16.23;;;11.80;99.90;;;;;;5040868;28;20459;-83
2021/05/14 03:46:10;;;;;;;24.93;14.43;;;11.80;99.90;;;;;;5038549;28;20475;-84
2021/05/14 03:48:37;;;;;;;25.67;15.77;;;11.80;99.90;;;;;;5043552;28;20441;-84
2021/05/14 03:51:04;;;;;;;23.60;15.00;;;11.90;99.90;;;;;;5050868;28;20539;-81
2021/05/14 03:53:30;;;;;;;26.23;14.87;;;11.90;99.90;;;;;;5049523;28;20524;-81
2021/05/14 03:55:57;;;;;;;29.00;16.70;;;11.90;99.90;;;;;;5043658;28;20564;-82
2021/05/14 03:58:24;;;;;;;31.23;18.83;;;11.90;99.90;;;;;;5041246;28;20494;-81
2021/05/14 04:00:50;;;;;;;26.43;15.20;;;11.90;99.90;;;;;;5049565;28;20444;-80
2021/05/14 04:03:17;;;;;;;25.13;16.10;;;12.00;99.90;;;;;;5041073;28;20444;-81
2021/05/14 04:05:43;;;;;;;30.43;19.20;;;12.00;99.90;;;;;;5041347;28;20515;-83
2021/05/14 04:08:10;;;;;;;26.83;15.33;;;12.00;99.90;;;;;;5046380;28;20453;-82
2021/05/14 04:10:50;;;;;;;26.53;16.00;;;12.00;99.90;;;;;;5048976;28;20480;-82
2021/05/14 04:16:03;;;;;;;25.37;15.90;;;11.00;99.90;;;;;;5027382;28;20503;-80
2021/05/14 04:18:29;;;;;;;29.00;17.87;;;12.10;99.90;;;;;;5037019;28;20452;-80
2021/05/14 04:20:56;;;;;;;26.73;15.60;;;12.20;99.90;;;;;;5042166;28;20880;-80
2021/05/14 04:23:22;;;;;;;24.17;14.83;;;12.20;99.90;;;;;;5041033;28;20524;-82
2021/05/14 04:25:49;;;;;;;26.97;17.07;;;12.20;99.90;;;;;;5041755;28;20469;-83
2021/05/14 04:28:17;;;;;;;26.23;16.70;;;12.20;99.90;;;;;;5041736;28;20453;-81
2021/05/14 04:30:43;;;;;;;26.53;16.43;;;12.30;99.90;;;;;;5040890;28;20449;-82
2021/05/14 04:33:09;;;;;;;25.20;15.97;;;12.30;99.90;;;;;;5040692;28;21016;-81
2021/05/14 04:35:36;;;;;;;23.90;15.17;;;12.40;99.90;;;;;;5036377;28;20468;-81
2021/05/14 04:38:02;;;;;;;28.90;16.90;;;12.40;99.90;;;;;;5037399;28;20448;-81
2021/05/14 04:40:29;;;;;;;27.03;15.67;;;12.40;99.90;;;;;;5040221;28;20505;-81
2021/05/14 04:43:00;;;;;;;27.60;16.57;;;12.50;99.90;;;;;;5039494;28;20877;-81
2021/05/14 04:45:27;;;;;;;24.60;16.30;;;12.60;99.90;;;;;;5032139;28;20445;-80
2021/05/14 04:47:53;;;;;;;28.47;17.73;;;12.70;99.90;;;;;;5041563;28;20453;-81
2021/05/14 04:50:20;;;;;;;24.57;15.67;;;12.80;99.90;;;;;;5040848;28;20528;-81
2021/05/14 04:52:47;;;;;;;29.53;19.27;;;12.90;99.90;;;;;;5040587;28;20495;-81
2021/05/14 04:55:15;;;;;;;27.37;17.00;;;13.00;99.90;;;;;;5040518;28;20448;-80
2021/05/14 04:57:41;;;;;;;27.77;17.30;;;13.20;99.90;;;;;;5041063;28;20460;-80
2021/05/14 05:00:09;;;;;;;26.67;15.90;;;13.20;99.90;;;;;;5040559;28;20455;-81
2021/05/14 05:02:37;;;;;;;26.17;15.90;;;13.30;99.90;;;;;;5039642;28;20447;-82
2021/05/14 05:05:04;;;;;;;23.50;15.40;;;13.40;99.90;;;;;;5040968;28;20448;-81
2021/05/14 05:07:31;;;;;;;26.53;16.40;;;13.50;99.90;;;;;;5039912;28;20479;-81
2021/05/14 05:09:57;;;;;;;24.50;15.97;;;13.50;99.90;;;;;;5039834;28;20449;-81
2021/05/14 05:12:24;;;;;;;22.90;14.90;;;13.70;99.90;;;;;;5039458;28;20504;-81
2021/05/14 05:14:51;;;;;;;26.63;15.00;;;13.80;99.90;;;;;;5040473;28;20480;-81
2021/05/14 05:17:17;;;;;;;27.50;18.30;;;13.80;99.90;;;;;;5039511;28;20491;-81
2021/05/14 05:19:44;;;;;;;24.50;14.87;;;13.80;99.90;;;;;;5038519;28;20455;-81
2021/05/14 05:22:11;;;;;;;28.80;17.93;;;13.90;99.90;;;;;;5037798;28;20457;-81
2021/05/14 05:24:37;;;;;;;25.50;14.90;;;13.90;99.90;;;;;;5040700;28;20505;-81
2021/05/14 05:27:04;;;;;;;25.33;15.60;;;14.00;99.90;;;;;;5038708;28;20461;-81
2021/05/14 05:29:30;;;;;;;27.97;15.90;;;14.10;99.90;;;;;;5038269;28;20453;-81
2021/05/14 05:31:57;;;;;;;28.13;15.60;;;14.10;99.90;;;;;;5040562;28;20491;-81
2021/05/14 05:34:24;;;;;;;24.80;16.30;;;14.20;99.90;;;;;;5038845;28;20455;-81
2021/05/14 05:36:51;;;;;;;28.53;19.67;;;14.30;99.90;;;;;;5038185;28;20479;-82
2021/05/14 05:39:18;;;;;;;33.20;20.93;;;14.20;99.90;;;;;;5037328;28;20919;-81
2021/05/14 05:41:44;;;;;;;25.53;16.37;;;14.00;99.90;;;;;;5041103;28;20451;-82
2021/05/14 05:44:10;;;;;;;35.80;21.30;;;14.20;99.90;;;;;;5048655;28;20429;-81
2021/05/14 05:46:37;;;;;;;27.70;16.40;;;14.10;99.90;;;;;;5041041;28;20952;-82
2021/05/14 05:49:04;;;;;;;27.67;16.33;;;14.10;99.90;;;;;;5037781;28;20456;-84
2021/05/14 05:51:31;;;;;;;27.73;15.93;;;14.30;99.90;;;;;;5038512;28;20581;-85
2021/05/14 05:53:59;;;;;;;26.27;17.13;;;14.40;99.90;;;;;;5038837;28;20460;-85
2021/05/14 05:56:25;;;;;;;33.07;20.13;;;14.40;99.90;;;;;;5057208;23;21623;-84
2021/05/14 05:58:52;;;;;;;33.83;19.10;;;14.40;99.90;;;;;;5001400;28;20458;-85
2021/05/14 06:01:18;;;;;;;29.97;17.20;;;14.50;99.90;;;;;;4999518;28;20493;-85
2021/05/14 06:03:44;;;;;;;33.87;19.73;;;14.60;99.90;;;;;;5001138;28;20482;-84
2021/05/14 06:06:11;;;;;;;30.57;17.20;;;14.60;99.90;;;;;;5008400;28;20437;-85
2021/05/14 06:08:37;;;;;;;29.63;17.80;;;14.60;99.90;;;;;;5015460;28;20468;-81
2021/05/14 06:11:05;;;;;;;29.43;17.43;;;14.70;99.90;;;;;;5009266;28;20518;-82
2021/05/14 06:13:32;;;;;;;29.30;17.40;;;14.70;99.90;;;;;;4998508;28;20478;-85
2021/05/14 06:15:59;;;;;;;28.80;18.30;;;14.70;99.90;;;;;;4997642;28;20454;-87
2021/05/14 06:18:29;;;;;;;27.27;16.80;;;14.80;99.90;;;;;;5000385;28;20454;-84
2021/05/14 06:20:55;;;;;;;26.53;15.90;;;15.00;99.90;;;;;;5006917;28;20449;-84
2021/05/14 06:23:21;;;;;;;30.10;17.07;;;15.00;99.90;;;;;;4999603;28;20514;-82
2021/05/14 06:25:48;;;;;;;26.10;15.30;;;15.00;99.90;;;;;;5015783;28;20446;-84
2021/05/14 06:28:19;;;;;;;30.07;17.37;;;15.00;99.90;;;;;;5010984;28;20537;-82
2021/05/14 06:30:45;;;;;;;25.20;15.93;;;15.10;99.90;;;;;;5004217;28;20513;-83
2021/05/14 06:33:12;;;;;;;26.50;16.30;;;15.20;99.90;;;;;;5005553;28;20492;-84
2021/05/14 06:35:40;;;;;;;27.27;17.20;;;15.40;99.90;;;;;;5007312;28;20446;-85
2021/05/14 06:38:06;;;;;;;24.53;15.47;;;15.30;99.90;;;;;;5007634;28;20474;-86
2021/05/14 06:40:33;;;;;;;32.33;18.17;;;15.60;99.90;;;;;;5005739;28;20518;-87
2021/05/14 06:42:59;;;;;;;26.00;15.30;;;15.70;99.90;;;;;;5001898;28;20523;-87
2021/05/14 06:45:27;;;;;;;36.23;17.13;;;15.60;99.90;;;;;;5004025;28;20497;-86
2021/05/14 06:48:00;;;;;;;24.80;15.50;;;15.80;99.90;;;;;;5000018;28;20497;-89
2021/05/14 06:50:27;;;;;;;29.93;15.83;;;15.90;99.90;;;;;;4999101;28;20530;-88
2021/05/14 06:52:53;;;;;;;27.60;14.70;;;16.10;99.90;;;;;;4999060;28;20494;-89
2021/05/14 06:55:19;;;;;;;27.20;16.30;;;16.30;99.90;;;;;;4998853;28;20927;-89
2021/05/14 06:57:46;;;;;;;29.80;15.50;;;16.50;99.90;;;;;;5001442;28;20911;-87
2021/05/14 07:00:13;;;;;;;24.13;14.27;;;16.50;99.90;;;;;;4997785;28;20464;-84
2021/05/14 07:02:41;;;;;;;24.67;14.60;;;16.60;99.90;;;;;;5009352;28;21208;-86
2021/05/14 07:05:08;;;;;;;27.00;15.40;;;16.50;99.90;;;;;;5008327;28;20458;-86
2021/05/14 07:07:37;;;;;;;24.83;14.70;;;16.50;99.90;;;;;;5007498;28;20553;-86
2021/05/14 07:10:04;;;;;;;23.07;13.33;;;16.50;99.90;;;;;;5008138;28;20945;-86
2021/05/14 07:12:36;;;;;;;25.73;15.37;;;16.30;99.90;;;;;;5006124;28;21045;-86
2021/05/14 07:15:02;;;;;;;25.77;15.80;;;16.30;99.90;;;;;;5003635;28;20871;-87
2021/05/14 07:17:29;;;;;;;26.47;16.03;;;16.40;99.90;;;;;;5005950;28;20470;-85
2021/05/14 07:19:56;;;;;;;30.23;17.67;;;16.40;99.90;;;;;;5005911;28;20508;-85
2021/05/14 07:22:22;;;;;;;28.27;18.60;;;16.50;99.90;;;;;;5005293;28;20466;-87
2021/05/14 07:24:49;;;;;;;26.67;17.00;;;16.60;99.90;;;;;;5005570;28;20478;-86
2021/05/14 07:27:18;;;;;;;26.20;17.53;;;16.40;99.90;;;;;;5002424;28;20467;-85
2021/05/14 07:29:45;;;;;;;30.23;18.83;;;16.40;99.90;;;;;;5004516;28;20458;-86
2021/05/14 07:32:12;;;;;;;29.07;17.77;;;16.40;99.90;;;;;;5005808;28;20482;-86
2021/05/14 07:34:38;;;;;;;28.67;17.93;;;16.60;99.90;;;;;;5007112;28;20447;-86
2021/05/14 07:37:07;;;;;;;30.60;20.43;;;16.60;99.90;;;;;;5005198;28;20458;-86
2021/05/14 07:39:35;;;;;;;30.87;19.07;;;16.70;99.90;;;;;;4999626;28;20481;-86
2021/05/14 07:42:02;;;;;;;34.10;18.90;;;16.60;99.90;;;;;;5008690;28;20466;-87
2021/05/14 07:44:28;;;;;;;31.10;15.30;;;17.00;99.90;;;;;;5001708;28;20534;-86
2021/05/14 07:46:55;;;;;;;32.43;19.40;;;17.20;99.90;;;;;;5015403;28;20461;-87
2021/05/14 07:49:21;;;;;;;29.27;18.93;;;17.30;99.90;;;;;;5007881;28;20518;-86
2021/05/14 07:51:47;;;;;;;30.10;16.03;;;17.40;99.90;;;;;;5006597;28;20478;-86
2021/05/14 07:54:15;;;;;;;34.07;16.13;;;17.80;99.90;;;;;;5010965;28;20508;-86
2021/05/14 07:56:41;;;;;;;34.87;16.27;;;17.90;99.90;;;;;;5004020;28;20484;-86
2021/05/14 07:59:08;;;;;;;28.13;15.37;;;18.10;99.90;;;;;;5003314;28;20520;-86
2021/05/14 08:01:35;;;;;;;29.93;15.40;;;18.10;99.90;;;;;;4997613;28;20454;-87
2021/05/14 08:04:02;;;;;;;28.10;13.30;;;18.30;99.90;;;;;;4988516;28;21203;-86
2021/05/14 08:06:28;;;;;;;27.73;13.87;;;18.40;99.90;;;;;;4988206;28;20499;-86
2021/05/14 08:08:57;;;;;;;27.27;13.13;;;18.30;99.90;;;;;;4998513;28;20454;-87
2021/05/14 08:11:24;;;;;;;26.87;12.13;;;18.30;99.90;;;;;;5000900;28;20594;-85
2021/05/14 08:13:51;;;;;;;25.40;11.10;;;18.50;99.90;;;;;;4997090;28;20482;-85
2021/05/14 08:16:17;;;;;;;39.00;34.60;;;18.80;99.90;;;;;;5006528;28;20498;-85
2021/05/14 08:18:43;;;;;;;24.30;11.30;;;18.80;99.90;;;;;;5005335;28;20446;-86
2021/05/14 08:21:10;;;;;;;31.40;14.00;;;19.40;99.90;;;;;;5008796;28;20447;-85
2021/05/14 08:23:36;;;;;;;30.20;18.47;;;19.30;99.90;;;;;;5005771;28;20446;-87
2021/05/14 08:26:03;;;;;;;36.23;15.20;;;19.60;99.90;;;;;;5002939;28;20498;-86
2021/05/14 08:28:30;;;;;;;476.93;448.67;;;19.70;99.90;;;;;;4996466;28;20808;-86
2021/05/14 08:30:57;;;;;;;364.77;339.33;;;19.80;99.90;;;;;;4995401;28;21428;-86
2021/05/14 08:33:24;;;;;;;801.83;444.03;;;20.10;99.90;;;;;;5003682;28;20486;-86
2021/05/14 08:35:50;;;;;;;1413.27;739.03;;;20.40;99.90;;;;;;5006913;28;20468;-87
2021/05/14 08:38:38;;;;;;;291.13;267.20;;;20.80;99.90;;;;;;5004502;28;20957;-84
2021/05/14 08:41:06;;;;;;;140.63;129.60;;;21.30;99.90;;;;;;5007173;28;20450;-87
2021/05/14 08:43:35;;;;;;;27.10;15.77;;;21.60;99.90;;;;;;5005468;28;20447;-85
2021/05/14 08:46:18;;;;;;;13.43;9.40;;;22.10;99.90;;;;;;5001526;28;20432;-87
2021/05/14 08:48:45;;;;;;;13.47;9.50;;;22.60;99.90;;;;;;5009275;28;20446;-86
2021/05/14 08:51:13;;;;;;;12.97;9.60;;;23.40;99.90;;;;;;5002898;28;20541;-86
2021/05/14 08:53:43;;;;;;;13.73;9.13;;;24.00;99.90;;;;;;4998628;28;20517;-86
2021/05/14 08:56:10;;;;;;;12.60;7.50;;;24.00;99.90;;;;;;5006106;28;20975;-85
2021/05/14 08:58:38;;;;;;;12.40;7.70;;;24.90;99.90;;;;;;4999722;28;20487;-86
2021/05/14 09:01:06;;;;;;;12.20;8.80;;;25.50;99.90;;;;;;4998201;28;20443;-88
2021/05/14 09:03:53;;;;;;;13.33;8.13;;;25.60;99.90;;;;;;4999696;28;20469;-85
2021/05/14 09:06:28;;;;;;;12.07;7.83;;;25.90;99.90;;;;;;4993063;28;20470;-85
2021/05/14 09:08:59;;;;;;;11.30;7.00;;;27.10;95.90;;;;;;4998065;28;20438;-86
2021/05/14 09:11:42;;;;;;;9.90;5.93;;;27.90;92.20;;;;;;4997557;28;20514;-85
2021/05/14 09:14:32;;;;;;;10.47;5.87;;;27.80;88.70;;;;;;4995757;28;20463;-84
2021/05/14 09:17:06;;;;;;;9.87;6.47;;;29.20;91.30;;;;;;4997270;28;20466;-86
2021/05/14 09:19:33;;;;;;;9.97;5.50;;;28.30;82.60;;;;;;4997564;28;20446;-88
2021/05/14 09:22:10;;;;;;;10.13;5.30;;;27.30;79.30;;;;;;4999475;28;20538;-87
2021/05/14 09:24:37;;;;;;;9.80;3.53;;;27.10;72.30;;;;;;5000237;28;20442;-90
2021/05/14 09:27:48;;;;;;;8.43;3.20;;;27.80;65.60;;;;;;5004199;28;20470;-87
2021/05/14 09:30:19;;;;;;;8.73;3.50;;;29.00;65.70;;;;;;5005613;28;20450;-87
2021/05/14 09:32:45;;;;;;;9.80;3.97;;;30.70;66.60;;;;;;5007588;28;20853;-84
2021/05/14 09:35:12;;;;;;;7.83;3.57;;;30.40;64.00;;;;;;4992324;28;20793;-87
2021/05/14 09:37:49;;;;;;;8.50;3.00;;;30.20;56.20;;;;;;5011462;28;20831;-87
2021/05/14 09:40:17;;;;;;;7.97;3.03;;;30.60;59.30;;;;;;5013309;28;20508;-87
2021/05/14 09:42:44;;;;;;;7.00;1.93;;;31.00;57.90;;;;;;5019643;28;20454;-86
2021/05/14 09:45:23;;;;;;;9.73;2.70;;;29.80;55.80;;;;;;4994978;28;20545;-89
2021/05/14 09:48:00;;;;;;;7.50;2.90;;;29.70;58.00;;;;;;4996836;28;20470;-85
2021/05/14 09:50:37;;;;;;;7.93;2.63;;;31.60;57.60;;;;;;4994554;28;20442;-87
2021/05/14 09:53:14;;;;;;;8.53;3.73;;;31.30;53.50;;;;;;4986824;28;20993;-86
2021/05/14 09:55:47;;;;;;;8.40;3.40;;;30.20;54.80;;;;;;4998971;28;20522;-87
2021/05/14 09:58:18;;;;;;;7.53;3.13;;;30.60;55.50;;;;;;4980073;28;20576;-90
2021/05/14 10:00:49;;;;;;;10.20;5.80;;;28.80;51.50;;;;;;4999403;28;21017;-88
2021/05/14 10:03:16;;;;;;;7.97;2.97;;;27.40;53.50;;;;;;4998649;28;20478;-87
2021/05/14 10:05:45;;;;;;;5.50;2.17;;;27.10;56.80;;;;;;4997766;28;20451;-88
2021/05/14 10:08:14;;;;;;;6.93;2.30;;;28.10;55.30;;;;;;4999353;28;20455;-85
2021/05/14 10:10:43;;;;;;;7.47;2.23;;;29.10;52.30;;;;;;4997462;28;20490;-87
2021/05/14 10:13:10;;;;;;;6.77;2.70;;;30.00;57.90;;;;;;4996969;28;20490;-88
2021/05/14 10:15:37;;;;;;;6.07;2.20;;;30.30;51.60;;;;;;4999906;28;20819;-86
2021/05/14 10:18:14;;;;;;;7.60;2.50;;;30.40;50.70;;;;;;5000198;28;20485;-87
2021/05/14 10:20:41;;;;;;;6.10;2.77;;;31.70;48.80;;;;;;4988900;28;20455;-92
2021/05/14 10:23:08;;;;;;;5.83;2.40;;;32.00;49.30;;;;;;5016827;28;20453;-89
2021/05/14 10:25:44;;;;;;;7.70;2.60;;;32.40;51.10;;;;;;5013430;28;20522;-87
2021/05/14 10:28:12;;;;;;;6.30;2.40;;;31.20;50.30;;;;;;5010856;28;20497;-88
2021/05/14 10:31:15;;;;;;;7.80;3.30;;;31.50;53.50;;;;;;4997747;28;20822;-88
2021/05/14 10:33:44;;;;;;;9.03;6.00;;;32.70;52.30;;;;;;4999153;28;20533;-87
2021/05/14 10:36:32;;;;;;;9.97;6.47;;;35.30;51.30;;;;;;5007742;28;20542;-91
2021/05/14 10:39:03;;;;;;;9.53;6.90;;;35.80;49.90;;;;;;5004359;28;20628;-88
2021/05/14 10:41:29;;;;;;;13.10;8.27;;;35.80;50.50;;;;;;5004220;28;20443;-87
2021/05/14 10:44:02;;;;;;;10.13;8.57;;;37.00;50.20;;;;;;5003077;28;20465;-88
2021/05/14 10:46:29;;;;;;;8.83;6.50;;;36.00;45.20;;;;;;5000506;28;20462;-89
2021/05/14 10:49:06;;;;;;;7.63;5.50;;;36.70;47.10;;;;;;5000648;28;20450;-86
2021/05/14 10:52:01;;;;;;;7.07;3.17;;;35.00;46.30;;;;;;4999166;28;20510;-87
2021/05/14 10:54:52;;;;;;;6.80;2.67;;;33.30;50.70;;;;;;5003516;28;20450;-89
2021/05/14 10:57:51;;;;;;;5.57;2.30;;;30.10;44.20;;;;;;4982996;28;20551;-88
2021/05/14 11:00:55;;;;;;;5.50;2.10;;;31.00;46.90;;;;;;4928535;29;20473;-88
2021/05/14 11:03:21;;;;;;;8.13;3.00;;;30.40;45.50;;;;;;4911290;29;20520;-90
2021/05/14 11:05:50;;;;;;;5.40;1.80;;;28.70;47.20;;;;;;4991637;28;20466;-91
2021/05/14 11:08:46;;;;;;;7.53;2.90;;;30.80;48.40;;;;;;5016957;28;20471;-91
2021/05/14 11:11:20;;;;;;;6.90;2.43;;;33.70;46.20;;;;;;5017151;28;20437;-92
2021/05/14 11:13:48;;;;;;;6.00;2.17;;;34.70;48.40;;;;;;5020901;28;20474;-91
2021/05/14 11:16:32;;;;;;;5.00;1.87;;;34.30;45.60;;;;;;5022174;28;20507;-90
2021/05/14 11:18:59;;;;;;;6.83;2.33;;;34.50;43.20;;;;;;5026120;28;20454;-88
2021/05/14 11:22:00;;;;;;;6.13;2.30;;;35.70;45.20;;;;;;5036347;28;20456;-91
2021/05/14 11:24:35;;;;;;;6.47;2.17;;;37.60;44.00;;;;;;5039597;28;20438;-88
2021/05/14 11:27:07;;;;;;;5.50;2.70;;;38.90;44.30;;;;;;5022520;28;20489;-87
2021/05/14 11:29:38;;;;;;;5.37;2.30;;;38.50;40.60;;;;;;5024844;28;20486;-90
2021/05/14 11:32:28;;;;;;;5.63;2.33;;;37.70;40.10;;;;;;5025379;28;20557;-86
2021/05/14 11:34:56;;;;;;;5.43;1.80;;;37.50;38.60;;;;;;5015264;28;20450;-88
2021/05/14 11:37:25;;;;;;;9.17;2.70;;;37.90;40.40;;;;;;5008087;28;20985;-86
2021/05/14 11:39:52;;;;;;;5.70;2.33;;;37.80;99.90;;;;;;5016602;28;20532;-86
2021/05/14 11:42:20;;;;;;;5.93;2.30;;;38.30;99.90;;;;;;5010195;28;20482;-88
2021/05/14 11:45:01;;;;;;;6.90;2.80;;;38.80;99.90;;;;;;5004483;28;20455;-88
2021/05/14 11:47:29;;;;;;;7.57;2.13;;;37.10;99.90;;;;;;4992738;28;20562;-89
2021/05/14 11:49:55;;;;;;;5.23;2.30;;;37.10;99.90;;;;;;5001295;28;20545;-89
2021/05/14 11:52:35;;;;;;;6.43;2.20;;;36.80;99.90;;;;;;5002785;28;20469;-88
2021/05/14 11:55:06;;;;;;;6.70;2.20;;;36.30;99.90;;;;;;5010842;28;20498;-89
2021/05/14 11:57:32;;;;;;;6.57;2.70;;;34.10;99.90;;;;;;5034704;23;20527;-82
2021/05/14 11:59:59;;;;;;;5.60;2.20;;;33.60;99.90;;;;;;5043447;28;20512;-84
2021/05/14 12:02:41;;;;;;;6.20;2.23;;;32.90;99.90;;;;;;5043032;28;20484;-84
2021/05/14 12:05:10;;;;;;;7.60;2.73;;;32.50;99.90;;;;;;5036318;28;20441;-84
2021/05/14 12:07:36;;;;;;;7.20;2.20;;;30.80;99.90;;;;;;5044211;28;20467;-84
2021/05/14 12:10:05;;;;;;;5.87;2.63;;;29.90;99.90;;;;;;5045052;28;20441;-84
2021/05/14 12:12:32;;;;;;;6.70;2.77;;;29.20;99.90;;;;;;5037570;28;20477;-83
2021/05/14 12:15:23;;;;;;;8.10;2.70;;;29.70;99.90;;;;;;5043257;28;20961;-85
2021/05/14 12:17:56;;;;;;;6.40;2.97;;;30.40;99.90;;;;;;5005458;28;20564;-83
2021/05/14 12:20:31;;;;;;;6.77;3.20;;;29.40;99.90;;;;;;5026275;28;20457;-84
2021/05/14 12:23:00;;;;;;;6.43;3.07;;;30.50;99.90;;;;;;5025754;28;20559;-83
2021/05/14 12:25:28;;;;;;;7.37;2.20;;;32.90;99.90;;;;;;5045430;28;20456;-84
2021/05/14 12:27:56;;;;;;;6.10;2.60;;;34.60;99.90;;;;;;5043660;28;20991;-84
2021/05/14 12:30:39;;;;;;;6.33;2.27;;;34.60;99.90;;;;;;5041377;28;20457;-85
2021/05/14 12:33:07;;;;;;;6.80;2.53;;;35.50;99.90;;;;;;5037890;28;20449;-84
2021/05/14 12:35:34;;;;;;;9.07;2.10;;;34.60;99.90;;;;;;5046026;28;20456;-84
2021/05/14 12:38:00;;;;;;;5.00;2.10;;;33.00;99.90;;;;;;5045560;28;20495;-84
2021/05/14 12:40:46;;;;;;;6.03;2.30;;;34.50;99.90;;;;;;5037605;28;20498;-83
2021/05/14 12:43:13;;;;;;;7.07;2.27;;;36.10;99.90;;;;;;5042479;28;20505;-83
2021/05/14 12:45:40;;;;;;;5.50;1.90;;;36.90;99.90;;;;;;5041510;28;20640;-84